ALB weather

Albany International Airport
Albany, New York, United States

Public forecast

Using degrees Fahrenheit for public forecast. Weather courtesy of forecast.io.

Current aviation weather report (METAR) for Albany International Airport

Retrieved 2019/10/18 07:51 UTC (14 minutes ago):

KALB 180751Z 29015G20KT 10SM OVC037 09/04 A2965 RMK AO2 SLP040 T00940039

Aviation forecast (TAF) for Albany International Airport

Retrieved 2019/10/18 06:42 UTC (1 hour ago):

TAF KALB 180540Z 1806/1906 29011G20KT P6SM OVC040 FM181400 32015G25KT P6SM BKN045 FM182100 30011G19KT P6SM SCT045 SCT250 FM190200 30007KT P6SM FEW045